Terminal Aerodrome Forecast
Issued by NWS

Home | Current Version | Previous Version | Text Only | Print | Product List | Glossary Off
Versions: 1 2 3 4 5 6 7 8 9 10 11 12 13 14 15 16 17 18 19 20 21

445
FTUS42 KMHX 222330 AAC
TAFPGV
TAF AMD
KPGV 222330Z 2300/2324 03005KT P6SM VCSH BKN025
     FM230200 36005KT P6SM VCSH BKN025
     FM230400 VRB04KT P6SM VCSH BKN020
     FM230600 VRB04KT P6SM VCSH BKN015
     FM230700 VRB04KT P6SM VCSH BKN010
     FM231500 35005KT P6SM VCSH BKN025
     FM231900 35005KT P6SM VCSH BKN030
      AMD LTD TO CLD VIS AND WIND=

USA.gov is the U.S. government's official web portal to all federal, state and local government web resources and services.